| time (UTC) | temp C | wind direction | speed KPH | gust KPH | rain 1hr cm | rain 24hr cm | rain mn cm | humidity % | barometer mb |
| 20260901070053 | 21 | 321 | 0.0 | 0.0 | 0.00 | 0.64 | 0.00 | 82 | 1008.9 |
| 20260901064554 | 22 | 110 | 0.0 | 0.0 | 0.00 | 0.64 | 0.64 | 80 | 1008.8 |
| 20260901063056 | 22 | 110 | 0.0 | 0.0 | 0.00 | 0.64 | 0.64 | 78 | 1008.9 |
| 20260901061600 | 23 | 110 | 0.0 | 0.0 | 0.00 | 0.64 | 0.64 | 74 | 1008.9 |
| 20260901060045 | 24 | 267 | 0.0 | 6.4 | 0.00 | 0.64 | 0.64 | 65 | 1008.8 |
| 20260901054550 | 23 | 326 | 1.6 | 6.4 | 0.00 | 0.64 | 0.64 | 69 | 1008.6 |
| 20260901053044 | 23 | 314 | 1.6 | 4.8 | 0.00 | 0.64 | 0.64 | 74 | 1008.5 |
| 20260901051543 | 23 | 309 | 0.0 | 0.0 | 0.00 | 0.64 | 0.64 | 75 | 1008.7 |
| 20260901050043 | 23 | 293 | 0.0 | 3.2 | 0.00 | 0.64 | 0.64 | 74 | 1008.7 |
| 20260901044558 | 23 | 324 | 1.6 | 6.4 | 0.00 | 0.64 | 0.64 | 76 | 1008.9 |
| 20260901043042 | 22 | 314 | 0.0 | 0.0 | 0.00 | 0.64 | 0.64 | 77 | 1008.9 |
| 20260901041540 | 22 | 314 | 0.0 | 0.0 | 0.00 | 0.64 | 0.64 | 74 | 1008.9 |
| 20260901040053 | 23 | 314 | 0.0 | 0.0 | 0.00 | 0.64 | 0.64 | 75 | 1008.7 |
| 20260901034540 | 23 | 314 | 0.0 | 0.0 | 0.00 | 0.64 | 0.64 | 77 | 1008.5 |
| 20260901033039 | 23 | 298 | 0.0 | 0.0 | 0.00 | 0.64 | 0.64 | 80 | 1008.4 |
| 20260901031537 | 22 | 298 | 0.0 | 0.0 | 0.00 | 0.64 | 0.64 | 78 | 1008.3 |
| 20260901030039 | 23 | 298 | 0.0 | 0.0 | 0.00 | 0.64 | 0.64 | 78 | 1007.9 |
| 20260901024547 | 23 | 298 | 0.0 | 0.0 | 0.00 | 0.64 | 0.64 | 76 | 1007.6 |
| 20260901023038 | 23 | 298 | 0.0 | 0.0 | 0.00 | 0.64 | 0.64 | 75 | 1007.3 |
| 20260901021545 | 23 | 298 | 0.0 | 0.0 | 0.00 | 0.64 | 0.64 | 75 | 1007.2 |
| 20260901020038 | 23 | 298 | 0.0 | 0.0 | 0.00 | 0.64 | 0.64 | 76 | 1006.9 |
| 20260901014538 | 24 | 298 | 0.0 | 0.0 | 0.00 | 0.64 | 0.64 | 71 | 1006.5 |
| 20260901013035 | 24 | 298 | 0.0 | 0.0 | 0.00 | 0.64 | 0.64 | 69 | 1006.4 |
| 20260901011533 | 25 | 298 | 0.0 | 0.0 | 0.00 | 0.64 | 0.64 | 66 | 1006.3 |
| 20260901010037 | 25 | 300 | 0.0 | 1.6 | 0.00 | 0.64 | 0.64 | 67 | 1006.0 |
| 20260901004532 | 25 | 302 | 0.0 | 0.0 | 0.00 | 0.64 | 0.64 | 66 | 1006.0 |
| 20260901003034 | 25 | 310 | 0.0 | 6.4 | 0.00 | 0.64 | 0.64 | 67 | 1005.9 |
| 20260901001537 | 25 | 320 | 1.6 | 8.0 | 0.00 | 0.64 | 0.64 | 64 | 1005.8 |
| 20260901000030 | 26 | 311 | 3.2 | 6.4 | 0.00 | 0.64 | 0.64 | 62 | 1006.0 |
| 20260831234533 | 26 | 321 | 3.2 | 6.4 | 0.00 | 0.64 | 0.64 | 62 | 1006.0 |
| 20260831233030 | 26 | 281 | 3.2 | 9.7 | 0.00 | 0.64 | 0.64 | 63 | 1006.0 |
| 20260831231633 | 26 | 305 | 3.2 | 9.7 | 0.00 | 0.64 | 0.64 | 66 | 1005.9 |
| 20260831230032 | 26 | 109 | 0.0 | 1.6 | 0.00 | 0.64 | 0.64 | 65 | 1006.1 |
| 20260831224546 | 25 | 117 | 0.0 | 9.7 | 0.00 | 0.64 | 0.64 | 69 | 1006.3 |
| 20260831223027 | 24 | 112 | 4.8 | 11.3 | 0.00 | 0.64 | 0.64 | 70 | 1006.4 |
| 20260831221529 | 24 | 115 | 0.0 | 3.2 | 0.00 | 0.64 | 0.64 | 77 | 1006.6 |
| 20260831220025 | 23 | 104 | 0.0 | 3.2 | 0.03 | 0.64 | 0.64 | 82 | 1007.0 |
| 20260831214532 | 22 | 96 | 0.0 | 3.2 | 0.05 | 0.64 | 0.64 | 85 | 1007.3 |
| 20260831213024 | 21 | 238 | 1.6 | 9.7 | 0.10 | 0.64 | 0.64 | 86 | 1007.9 |
| 20260831211523 | 21 | 330 | 1.6 | 4.8 | 0.18 | 0.64 | 0.64 | 83 | 1007.6 |
| 20260831210022 | 21 | 109 | 0.0 | 3.2 | 0.25 | 0.61 | 0.61 | 89 | 1008.8 |
| 20260831204522 | 21 | 100 | 4.8 | 9.7 | 0.36 | 0.58 | 0.58 | 90 | 1009.4 |
| 20260831203032 | 20 | 115 | 1.6 | 9.7 | 0.33 | 0.53 | 0.53 | 91 | 1010.3 |
| 20260831201521 | 20 | 110 | 4.8 | 11.3 | 0.25 | 0.46 | 0.46 | 90 | 1010.5 |
| 20260831200022 | 21 | 98 | 1.6 | 3.2 | 0.15 | 0.33 | 0.33 | 89 | 1011.1 |
| 20260831194519 | 21 | 108 | 0.0 | 6.4 | 0.18 | 0.23 | 0.23 | 87 | 1011.4 |
| 20260831193019 | 21 | 108 | 1.6 | 4.8 | 0.15 | 0.20 | 0.20 | 87 | 1011.3 |
| 20260831191534 | 21 | 302 | 0.0 | 1.6 | 0.15 | 0.20 | 0.20 | 87 | 1010.9 |
| 20260831190014 | 22 | 99 | 0.0 | 4.8 | 0.13 | 0.18 | 0.18 | 83 | 1010.9 |
| 20260831184514 | 22 | 314 | 0.0 | 9.7 | 0.00 | 0.05 | 0.05 | 79 | 1010.7 |
| 20260831183025 | 23 | 323 | 4.8 | 19.3 | 0.00 | 0.05 | 0.05 | 71 | 1010.6 |
| 20260831181508 | 25 | 119 | 6.4 | 12.9 | 0.00 | 0.05 | 0.05 | 64 | 1009.4 |
| 20260831180009 | 25 | 341 | 0.0 | 6.4 | 0.00 | 0.05 | 0.05 | 64 | 1009.2 |
| 20260831174507 | 24 | 281 | 4.8 | 17.7 | 0.00 | 0.05 | 0.05 | 66 | 1009.2 |
| 20260831173006 | 23 | 341 | 3.2 | 11.3 | 0.00 | 0.05 | 0.05 | 69 | 1009.1 |
| 20260831171504 | 24 | 307 | 4.8 | 14.5 | 0.00 | 0.05 | 0.05 | 66 | 1009.0 |
| 20260831170004 | 24 | 290 | 6.4 | 20.9 | 0.00 | 0.05 | 0.05 | 69 | 1008.9 |
| 20260831164503 | 24 | 303 | 6.4 | 16.1 | 0.00 | 0.05 | 0.05 | 72 | 1008.8 |
| 20260831163059 | 25 | 316 | 8.0 | 20.9 | 0.00 | 0.05 | 0.05 | 71 | 1008.4 |
| 20260831161555 | 25 | 329 | 8.0 | 17.7 | 0.00 | 0.05 | 0.05 | 70 | 1007.8 |
| 20260831160053 | 25 | 311 | 8.0 | 17.7 | 0.00 | 0.05 | 0.05 | 70 | 1007.6 |
| 20260831154616 | 25 | 327 | 8.0 | 12.9 | 0.00 | 0.05 | 0.05 | 73 | 1007.3 |
| 20260831153052 | 24 | 346 | 4.8 | 12.9 | 0.00 | 0.05 | 0.05 | 77 | 1007.5 |
| 20260831151607 | 23 | 319 | 8.0 | 16.1 | 0.00 | 0.05 | 0.05 | 79 | 1007.5 |
| 20260831150050 | 22 | 330 | 4.8 | 9.7 | 0.00 | 0.05 | 0.05 | 82 | 1007.2 |
| 20260831144549 | 22 | 321 | 3.2 | 6.4 | 0.00 | 0.05 | 0.05 | 85 | 1007.0 |
| 20260831143051 | 22 | 306 | 1.6 | 3.2 | 0.00 | 0.05 | 0.05 | 87 | 1006.9 |
| 20260831141548 | 21 | 96 | 0.0 | 8.0 | 0.00 | 0.05 | 0.05 | 87 | 1006.8 |
| 20260831140047 | 21 | 110 | 0.0 | 1.6 | 0.00 | 0.05 | 0.05 | 88 | 1006.9 |
| 20260831134555 | 21 | 110 | 0.0 | 4.8 | 0.00 | 0.05 | 0.05 | 88 | 1006.9 |
| 20260831133046 | 21 | 101 | 4.8 | 9.7 | 0.03 | 0.05 | 0.05 | 88 | 1006.8 |
| 20260831131547 | 21 | 101 | 3.2 | 11.3 | 0.05 | 0.05 | 0.05 | 88 | 1006.9 |
| 20260831130052 | 21 | 116 | 6.4 | 11.3 | 0.05 | 0.05 | 0.05 | 87 | 1007.1 |
| 20260831124548 | 21 | 134 | 4.8 | 11.3 | 0.05 | 0.05 | 0.05 | 86 | 1007.4 |
| 20260831123037 | 22 | 311 | 4.8 | 12.9 | 0.00 | 0.00 | 0.00 | 80 | 1007.1 |
| 20260831121544 | 22 | 302 | 3.2 | 12.9 | 0.00 | 0.00 | 0.00 | 79 | 1007.1 |
| 20260831120037 | 22 | 302 | 3.2 | 19.3 | 0.00 | 0.00 | 0.00 | 75 | 1006.7 |
| 20260831114532 | 23 | 291 | 6.4 | 20.9 | 0.00 | 0.00 | 0.00 | 70 | 1006.5 |
| 20260831113026 | 25 | 320 | 9.7 | 20.9 | 0.00 | 0.00 | 0.00 | 61 | 1006.0 |
| 20260831111522 | 26 | 307 | 1.6 | 3.2 | 0.00 | 0.00 | 0.00 | 58 | 1005.2 |
| 20260831110023 | 26 | 280 | 0.0 | 1.6 | 0.00 | 0.00 | 0.00 | 58 | 1005.1 |
| 20260831104519 | 25 | 280 | 0.0 | 0.0 | 0.00 | 0.00 | 0.00 | 60 | 1004.5 |
| 20260831103027 | 26 | 280 | 0.0 | 0.0 | 0.00 | 0.00 | 0.00 | 59 | 1004.4 |
| 20260831101524 | 26 | 280 | 0.0 | 1.6 | 0.00 | 0.00 | 0.00 | 57 | 1004.4 |
| 20260831100018 | 25 | 280 | 0.0 | 0.0 | 0.00 | 0.00 | 0.00 | 61 | 1004.4 |
| 20260831094516 | 26 | 280 | 0.0 | 0.0 | 0.00 | 0.00 | 0.00 | 60 | 1004.2 |
| 20260831093032 | 26 | 280 | 0.0 | 0.0 | 0.00 | 0.00 | 0.00 | 55 | 1004.4 |
| 20260831091514 | 26 | 280 | 0.0 | 0.0 | 0.00 | 0.00 | 0.00 | 56 | 1004.2 |
| 20260831090013 | 25 | 280 | 0.0 | 0.0 | 0.00 | 0.00 | 0.00 | 60 | 1004.2 |
| 20260831084512 | 26 | 280 | 0.0 | 0.0 | 0.00 | 0.00 | 0.00 | 57 | 1004.3 |
| 20260831083010 | 26 | 280 | 0.0 | 0.0 | 0.00 | 0.00 | 0.00 | 54 | 1004.4 |
| 20260831081506 | 26 | 280 | 0.0 | 0.0 | 0.00 | 0.00 | 0.00 | 58 | 1004.4 |
| 20260831080004 | 26 | 280 | 0.0 | 0.0 | 0.00 | 0.00 | 0.00 | 56 | 1004.5 |
| 20260831074601 | 27 | 280 | 0.0 | 0.0 | 0.00 | 0.00 | 0.00 | 53 | 1004.8 |
| 20260831073103 | 27 | 280 | 0.0 | 0.0 | 0.00 | 0.00 | 0.00 | 54 | 1004.5 |
| 20260831071611 | 28 | 280 | 0.0 | 0.0 | 0.00 | 0.00 | 0.00 | 47 | 1004.7 |